createdAt,value
2018-02-23T00:01:16.259Z,96518.09
2018-02-23T00:03:43.709Z,96512.00
2018-02-23T00:06:11.163Z,96511.50
2018-02-23T00:08:38.583Z,96516.80
2018-02-23T00:11:06.044Z,96516.05
2018-02-23T00:13:33.483Z,96514.30
2018-02-23T00:16:00.941Z,96508.63
2018-02-23T00:18:28.480Z,96517.34
2018-02-23T00:20:55.887Z,96516.47
2018-02-23T00:23:23.309Z,96512.17
2018-02-23T00:25:50.953Z,96518.09
2018-02-23T00:28:18.388Z,96518.46
2018-02-23T00:30:45.830Z,96511.72
2018-02-23T00:33:13.437Z,96509.59
2018-02-23T00:35:40.895Z,96517.83
2018-02-23T00:38:08.338Z,96520.41
2018-02-23T00:40:35.812Z,96517.75
2018-02-23T00:43:03.252Z,96514.20
2018-02-23T00:45:30.689Z,96521.53
2018-02-23T00:47:58.127Z,96526.28
2018-02-23T00:50:25.563Z,96520.79
2018-02-23T00:52:52.956Z,96516.53
2018-02-23T00:55:20.414Z,96520.50
2018-02-23T00:57:48.009Z,96516.20
2018-02-23T01:00:15.440Z,96505.30
2018-02-23T01:02:42.876Z,96517.00
2018-02-23T01:05:10.291Z,96525.58
2018-02-23T01:07:37.706Z,96505.63
2018-02-23T01:10:05.163Z,96507.34
2018-02-23T01:12:32.612Z,96498.84
2018-02-23T01:15:00.019Z,96501.42
2018-02-23T01:17:27.747Z,96505.20
2018-02-23T01:19:55.269Z,96507.88
2018-02-23T01:22:22.726Z,96505.96
2018-02-23T01:24:50.120Z,96505.01
2018-02-23T01:27:17.785Z,96506.42
2018-02-23T01:29:45.264Z,96499.09
2018-02-23T01:32:12.664Z,96497.76
2018-02-23T01:34:40.113Z,96501.72
2018-02-23T01:37:07.541Z,96497.84
2018-02-23T01:39:35.026Z,96491.97
2018-02-23T01:42:02.464Z,96494.51
2018-02-23T01:44:29.909Z,96486.33
2018-02-23T01:46:57.357Z,96499.34
2018-02-23T01:49:24.828Z,96494.76
2018-02-23T01:51:52.251Z,96494.72
2018-02-23T01:54:19.747Z,96494.22
2018-02-23T01:56:47.622Z,96487.72
2018-02-23T01:59:16.021Z,96474.58
2018-02-23T02:01:43.546Z,96485.58
2018-02-23T02:04:11.094Z,96477.45
2018-02-23T02:06:39.108Z,96484.22
2018-02-23T02:09:06.584Z,96475.72
2018-02-23T02:11:33.980Z,96475.30
2018-02-23T02:14:01.447Z,96476.88
2018-02-23T02:16:28.846Z,96475.55
2018-02-23T02:18:56.256Z,96472.09
2018-02-23T02:21:23.668Z,96473.89
2018-02-23T02:23:51.130Z,96469.64
2018-02-23T02:26:18.606Z,96478.50
2018-02-23T02:28:46.043Z,96471.22
2018-02-23T02:31:13.893Z,96466.92
2018-02-23T02:33:41.346Z,96473.42
2018-02-23T02:36:08.785Z,96473.89
2018-02-23T02:38:36.916Z,96470.84
2018-02-23T02:41:04.358Z,96460.84
2018-02-23T02:43:31.801Z,96472.09
2018-02-23T02:45:59.315Z,96462.39
2018-02-23T02:48:26.779Z,96466.29
2018-02-23T02:50:54.140Z,96453.00
2018-02-23T02:53:21.572Z,96449.45
2018-02-23T02:55:48.993Z,96457.86
2018-02-23T02:58:16.428Z,96459.73
2018-02-23T03:00:43.813Z,96458.14
2018-02-23T03:03:11.257Z,96452.07
2018-02-23T03:05:38.714Z,96449.81
2018-02-23T03:08:06.132Z,96447.68
2018-02-23T03:10:33.556Z,96450.11
2018-02-23T03:13:00.983Z,96448.95
2018-02-23T03:15:28.367Z,96444.63
2018-02-23T03:17:56.560Z,96446.70
2018-02-23T03:20:24.013Z,96439.25
2018-02-23T03:22:51.451Z,96443.94
2018-02-23T03:25:18.866Z,96433.98
2018-02-23T03:27:46.337Z,96435.32
2018-02-23T03:30:13.753Z,96441.50
2018-02-23T03:32:41.599Z,96439.78
2018-02-23T03:35:09.099Z,96432.19
2018-02-23T03:37:36.543Z,96434.99
2018-02-23T03:40:03.994Z,96433.70
2018-02-23T03:42:31.392Z,96422.27
2018-02-23T03:44:58.846Z,96425.03
2018-02-23T03:47:26.247Z,96414.88
2018-02-23T03:49:53.695Z,96417.30
2018-02-23T03:52:21.089Z,96414.62
2018-02-23T03:54:48.940Z,96412.77
2018-02-23T03:57:16.406Z,96417.73
2018-02-23T03:59:43.893Z,96419.94
2018-02-23T04:02:11.333Z,96421.52
2018-02-23T04:04:38.760Z,96411.34
2018-02-23T04:07:06.212Z,96416.68
2018-02-23T04:09:33.664Z,96409.31
2018-02-23T04:12:01.124Z,96415.50
2018-02-23T04:14:28.557Z,96408.03
2018-02-23T04:16:56.006Z,96406.59
2018-02-23T04:19:25.845Z,96408.61
2018-02-23T04:21:53.277Z,96396.56
2018-02-23T04:24:20.740Z,96401.41
2018-02-23T04:26:48.136Z,96401.03
2018-02-23T04:29:15.598Z,96406.98
2018-02-23T04:31:43.037Z,96399.33
2018-02-23T04:34:10.439Z,96391.58
2018-02-23T04:36:37.901Z,96398.74
2018-02-23T04:39:05.333Z,96399.66
2018-02-23T04:41:32.728Z,96399.07
2018-02-23T04:44:00.258Z,96396.26
2018-02-23T04:46:27.692Z,96400.73
2018-02-23T04:48:55.143Z,96402.87
2018-02-23T04:51:23.112Z,96408.50
2018-02-23T04:53:50.536Z,96401.63
2018-02-23T04:56:18.111Z,96401.41
2018-02-23T04:58:45.521Z,96404.23
2018-02-23T05:01:12.945Z,96403.98
2018-02-23T05:03:40.345Z,96399.34
2018-02-23T05:06:07.780Z,96393.58
2018-02-23T05:08:35.317Z,96400.45
2018-02-23T05:11:02.804Z,96399.23
2018-02-23T05:13:30.496Z,96409.31
2018-02-23T05:15:57.912Z,96408.02
2018-02-23T05:18:25.360Z,96404.05
2018-02-23T05:20:52.832Z,96408.17
2018-02-23T05:23:20.295Z,96403.55
2018-02-23T05:25:47.701Z,96406.08
2018-02-23T05:28:15.164Z,96408.75
2018-02-23T05:30:42.621Z,96408.80
2018-02-23T05:33:10.391Z,96406.55
2018-02-23T05:35:37.956Z,96412.95
2018-02-23T05:38:05.409Z,96405.21
2018-02-23T05:40:32.828Z,96401.09
2018-02-23T05:43:00.277Z,96400.09
2018-02-23T05:45:27.691Z,96400.51
2018-02-23T05:47:55.151Z,96402.84
2018-02-23T05:50:22.553Z,96401.52
2018-02-23T05:52:49.986Z,96412.72
2018-02-23T05:55:17.413Z,96409.39
2018-02-23T05:57:44.869Z,96410.97
2018-02-23T06:00:12.271Z,96407.05
2018-02-23T06:02:39.712Z,96404.38
2018-02-23T06:05:07.130Z,96403.87
2018-02-23T06:07:34.560Z,96408.26
2018-02-23T06:10:02.213Z,96411.80
2018-02-23T06:12:29.658Z,96410.37
2018-02-23T06:14:57.048Z,96411.20
2018-02-23T06:17:30.101Z,96409.36
2018-02-23T06:20:02.946Z,96405.66
2018-02-23T06:22:30.389Z,96404.70
2018-02-23T06:24:57.856Z,96411.22
2018-02-23T06:27:25.318Z,96411.45
2018-02-23T06:29:52.764Z,96407.14
2018-02-23T06:32:20.195Z,96412.64
2018-02-23T06:34:47.647Z,96417.16
2018-02-23T06:37:15.105Z,96420.20
2018-02-23T06:39:43.071Z,96417.26
2018-02-23T06:42:10.499Z,96412.64
2018-02-23T06:44:37.948Z,96423.89
2018-02-23T06:47:10.777Z,96415.78
2018-02-23T06:49:38.228Z,96420.02
2018-02-23T06:52:05.617Z,96422.19
2018-02-23T06:54:33.134Z,96425.64
2018-02-23T06:57:01.700Z,96420.25
2018-02-23T06:59:29.317Z,96428.75
2018-02-23T07:01:57.067Z,96429.67
2018-02-23T07:04:24.544Z,96420.55
2018-02-23T07:06:51.979Z,96423.06
2018-02-23T07:09:19.462Z,96432.52
2018-02-23T07:11:46.850Z,96428.97
2018-02-23T07:14:14.284Z,96431.64
2018-02-23T07:16:41.741Z,96427.95
2018-02-23T07:19:09.705Z,96433.67
2018-02-23T07:21:37.169Z,96433.17
2018-02-23T07:24:04.619Z,96431.29
2018-02-23T07:26:32.077Z,96435.25
2018-02-23T07:28:59.973Z,96436.77
2018-02-23T07:31:27.468Z,96437.13
2018-02-23T07:33:54.880Z,96446.78
2018-02-23T07:36:22.343Z,96437.48
2018-02-23T07:38:49.751Z,96437.73
2018-02-23T07:41:17.221Z,96433.45
2018-02-23T07:43:45.315Z,96434.37
2018-02-23T07:46:12.731Z,96435.34
2018-02-23T07:48:40.129Z,96436.91
2018-02-23T07:51:08.084Z,96443.88
2018-02-23T07:53:35.497Z,96440.92
2018-02-23T07:56:02.922Z,96436.17
2018-02-23T07:58:30.321Z,96439.17
2018-02-23T08:00:57.737Z,96442.91
2018-02-23T08:03:25.186Z,96437.70
2018-02-23T08:05:52.602Z,96443.00
2018-02-23T08:08:20.088Z,96446.92
2018-02-23T08:10:47.493Z,96445.30
2018-02-23T08:13:14.930Z,96453.34
2018-02-23T08:15:42.336Z,96443.74
2018-02-23T08:18:10.037Z,96446.09
2018-02-23T08:20:37.472Z,96450.81
2018-02-23T08:23:04.918Z,96445.69
2018-02-23T08:25:32.331Z,96453.17
2018-02-23T08:28:00.408Z,96456.27
2018-02-23T08:30:27.851Z,96447.27
2018-02-23T08:32:55.472Z,96458.02
2018-02-23T08:35:22.918Z,96460.59
2018-02-23T08:37:50.363Z,96457.19
2018-02-23T08:40:17.836Z,96452.06
2018-02-23T08:42:45.332Z,96455.61
2018-02-23T08:45:13.607Z,96452.95
2018-02-23T08:47:41.060Z,96458.80
2018-02-23T08:50:08.459Z,96453.31
2018-02-23T08:52:36.260Z,96452.57
2018-02-23T08:55:03.733Z,96452.19
2018-02-23T08:57:31.176Z,96449.89
2018-02-23T08:59:58.614Z,96452.20
2018-02-23T09:02:26.044Z,96453.02
2018-02-23T09:04:53.483Z,96457.42
2018-02-23T09:07:20.917Z,96448.33
2018-02-23T09:09:48.320Z,96452.80
2018-02-23T09:12:15.733Z,96456.41
2018-02-23T09:14:43.169Z,96446.25
2018-02-23T09:17:10.579Z,96452.95
2018-02-23T09:19:38.057Z,96452.26
2018-02-23T09:22:05.985Z,96456.55
2018-02-23T09:24:33.507Z,96451.94
2018-02-23T09:27:00.973Z,96453.00
2018-02-23T09:29:28.379Z,96459.09
2018-02-23T09:31:55.784Z,96452.91
2018-02-23T09:34:35.048Z,96461.35
2018-02-23T09:37:02.590Z,96464.48
2018-02-23T09:39:30.062Z,96472.75
2018-02-23T09:41:57.518Z,96472.37
2018-02-23T09:44:24.900Z,96468.31
2018-02-23T09:46:52.356Z,96474.31
2018-02-23T09:49:19.830Z,96472.25
2018-02-23T09:51:47.357Z,96464.67
2018-02-23T09:54:14.767Z,96466.69
2018-02-23T09:56:42.198Z,96465.64
2018-02-23T09:59:09.586Z,96469.06
2018-02-23T10:01:36.989Z,96467.57
2018-02-23T10:04:04.445Z,96468.08
2018-02-23T10:06:31.925Z,96477.72
2018-02-23T10:08:59.365Z,96480.81
2018-02-23T10:11:26.785Z,96475.23
2018-02-23T10:13:54.179Z,96478.51
2018-02-23T10:16:21.648Z,96482.21
2018-02-23T10:18:49.071Z,96480.09
2018-02-23T10:21:16.522Z,96468.58
2018-02-23T10:23:43.946Z,96473.25
2018-02-23T10:26:12.483Z,96481.74
2018-02-23T10:28:39.871Z,96480.69
2018-02-23T10:31:07.267Z,96481.88
2018-02-23T10:33:34.668Z,96483.37
2018-02-23T10:36:02.111Z,96476.66
2018-02-23T10:38:29.636Z,96477.48
2018-02-23T10:40:57.729Z,96477.30
2018-02-23T10:43:25.214Z,96473.22
2018-02-23T10:45:52.685Z,96470.55
2018-02-23T10:48:20.360Z,96478.07
2018-02-23T10:50:47.904Z,96468.92
2018-02-23T10:53:15.547Z,96476.73
2018-02-23T10:55:43.145Z,96484.18
2018-02-23T10:58:10.601Z,96485.25
2018-02-23T11:00:38.053Z,96479.42
2018-02-23T11:03:05.451Z,96494.44
2018-02-23T11:05:32.919Z,96489.86
2018-02-23T11:08:00.371Z,96486.09
2018-02-23T11:10:27.812Z,96481.32
2018-02-23T11:12:55.223Z,96490.88
2018-02-23T11:15:23.771Z,96484.28
2018-02-23T11:17:51.215Z,96478.56
2018-02-23T11:20:18.612Z,96487.98
2018-02-23T11:22:46.076Z,96478.88
2018-02-23T11:25:13.789Z,96479.63
2018-02-23T11:27:41.233Z,96482.16
2018-02-23T11:30:08.683Z,96478.95
2018-02-23T11:32:36.223Z,96473.46
2018-02-23T11:35:03.671Z,96477.70
2018-02-23T11:37:31.076Z,96485.47
2018-02-23T11:39:58.509Z,96482.62
2018-02-23T11:42:25.927Z,96486.91
2018-02-23T11:44:53.417Z,96498.64
2018-02-23T11:47:20.828Z,96487.38
2018-02-23T11:49:48.276Z,96479.34
2018-02-23T11:52:15.856Z,96477.80
2018-02-23T11:54:43.253Z,96486.30
2018-02-23T11:57:10.682Z,96486.34
2018-02-23T11:59:38.138Z,96484.63
2018-02-23T12:02:05.742Z,96480.98
2018-02-23T12:04:33.137Z,96477.32
2018-02-23T12:07:00.570Z,96476.67
2018-02-23T12:09:28.168Z,96473.84
2018-02-23T12:11:56.040Z,96467.83
2018-02-23T12:14:23.571Z,96471.76
2018-02-23T12:16:51.088Z,96482.58
2018-02-23T12:19:18.615Z,96478.14
2018-02-23T12:21:46.024Z,96473.15
2018-02-23T12:24:13.748Z,96474.41
2018-02-23T12:26:41.210Z,96479.37
2018-02-23T12:29:08.684Z,96474.61
2018-02-23T12:31:36.136Z,96472.72
2018-02-23T12:34:04.321Z,96474.79
2018-02-23T12:36:31.750Z,96471.95
2018-02-23T12:38:59.188Z,96476.95
2018-02-23T12:41:26.596Z,96484.88
2018-02-23T12:43:54.314Z,96481.63
2018-02-23T12:46:21.726Z,96472.53
2018-02-23T12:48:49.191Z,96473.67
2018-02-23T12:51:16.591Z,96470.13
2018-02-23T12:53:44.040Z,96459.17
2018-02-23T12:56:11.542Z,96460.06
2018-02-23T12:58:38.957Z,96457.66
2018-02-23T13:01:06.376Z,96461.53
2018-02-23T13:03:33.841Z,96464.80
2018-02-23T13:06:01.281Z,96460.88
2018-02-23T13:08:28.674Z,96463.10
2018-02-23T13:10:56.133Z,96458.50
2018-02-23T13:13:23.531Z,96466.25
2018-02-23T13:15:51.025Z,96460.30
2018-02-23T13:18:18.472Z,96455.52
2018-02-23T13:20:45.925Z,96461.94
2018-02-23T13:23:13.669Z,96451.05
2018-02-23T13:25:41.146Z,96442.83
2018-02-23T13:28:14.271Z,96447.61
2018-02-23T13:30:41.725Z,96446.86
2018-02-23T13:33:09.242Z,96441.24
2018-02-23T13:35:36.949Z,96444.64
2018-02-23T13:38:04.403Z,96449.58
2018-02-23T13:40:31.797Z,96446.66
2018-02-23T13:42:59.273Z,96440.64
2018-02-23T13:45:26.719Z,96446.28
2018-02-23T13:47:54.141Z,96441.02
2018-02-23T13:50:21.637Z,96448.08
2018-02-23T13:52:49.105Z,96449.89
2018-02-23T13:55:16.788Z,96448.28
2018-02-23T13:57:44.531Z,96459.46
2018-02-23T14:00:11.940Z,96459.53
2018-02-23T14:02:39.347Z,96467.61
2018-02-23T14:05:06.805Z,96463.49
2018-02-23T14:07:34.273Z,96469.91
2018-02-23T14:10:01.856Z,96459.41
2018-02-23T14:12:29.303Z,96467.52
2018-02-23T14:14:57.383Z,96465.00
2018-02-23T14:17:24.806Z,96457.26
2018-02-23T14:19:53.137Z,96462.22
2018-02-23T14:22:20.556Z,96464.53
2018-02-23T14:24:49.178Z,96464.34
2018-02-23T14:27:16.621Z,96460.87
2018-02-23T14:29:44.025Z,96469.83
2018-02-23T14:32:11.511Z,96458.80
2018-02-23T14:34:39.071Z,96468.48
2018-02-23T14:37:06.525Z,96463.73
2018-02-23T14:39:33.944Z,96468.86
2018-02-23T14:42:01.409Z,96469.51
2018-02-23T14:44:28.806Z,96458.77
2018-02-23T14:46:57.037Z,96462.23
2018-02-23T14:49:24.469Z,96458.77
2018-02-23T14:51:51.858Z,96472.64
2018-02-23T14:54:19.332Z,96482.21
2018-02-23T14:56:46.796Z,96484.18
2018-02-23T14:59:14.230Z,96485.81
2018-02-23T15:01:41.672Z,96480.59
2018-02-23T15:04:09.122Z,96474.86
2018-02-23T15:06:37.185Z,96463.73
2018-02-23T15:09:04.643Z,96467.11
2018-02-23T15:11:32.052Z,96465.73
2018-02-23T15:13:59.460Z,96462.59
2018-02-23T15:16:27.016Z,96468.50
2018-02-23T15:18:54.574Z,96467.39
2018-02-23T15:21:22.673Z,96462.23
2018-02-23T15:23:50.122Z,96465.13
2018-02-23T15:26:17.518Z,96457.37
2018-02-23T15:28:44.933Z,96456.87
2018-02-23T15:31:24.365Z,96463.61
2018-02-23T15:33:51.824Z,96470.95
2018-02-23T15:36:19.230Z,96467.48
2018-02-23T15:38:46.713Z,96464.08
2018-02-23T15:41:14.132Z,96469.61
2018-02-23T15:43:41.541Z,96483.92
2018-02-23T15:46:08.985Z,96475.29
2018-02-23T15:48:40.290Z,96473.11
2018-02-23T15:51:27.392Z,96472.56
2018-02-23T15:53:54.801Z,96491.16
2018-02-23T15:56:22.203Z,96486.78
2018-02-23T15:58:49.635Z,96486.09
2018-02-23T16:01:17.084Z,96478.84
2018-02-23T16:03:44.548Z,96492.22
2018-02-23T16:06:11.983Z,96490.00
2018-02-23T16:08:39.453Z,96488.57
2018-02-23T16:11:06.893Z,96485.53
2018-02-23T16:13:34.301Z,96493.14
2018-02-23T16:16:01.792Z,96487.05
2018-02-23T16:18:29.249Z,96492.00
2018-02-23T16:20:56.689Z,96492.36
2018-02-23T16:23:24.108Z,96499.33
2018-02-23T16:25:51.545Z,96497.39
2018-02-23T16:28:18.940Z,96499.69
2018-02-23T16:30:46.352Z,96496.55
2018-02-23T16:33:13.803Z,96498.13
2018-02-23T16:35:41.419Z,96500.30
2018-02-23T16:38:08.849Z,96515.80
2018-02-23T16:40:36.255Z,96510.73
2018-02-23T16:43:03.745Z,96512.27
2018-02-23T16:45:31.252Z,96509.26
2018-02-23T16:47:58.792Z,96510.39
2018-02-23T16:50:27.178Z,96512.73
2018-02-23T16:52:54.737Z,96520.70
2018-02-23T16:55:22.196Z,96525.55
2018-02-23T16:57:49.644Z,96516.09
2018-02-23T17:00:17.100Z,96519.00
2018-02-23T17:02:44.498Z,96515.45
2018-02-23T17:05:12.327Z,96522.44
2018-02-23T17:07:39.939Z,96526.67
2018-02-23T17:10:07.461Z,96518.68
2018-02-23T17:12:35.077Z,96515.39
2018-02-23T17:15:02.532Z,96511.36
2018-02-23T17:17:30.045Z,96518.87
2018-02-23T17:19:57.707Z,96527.86
2018-02-23T17:22:25.276Z,96517.31
2018-02-23T17:24:52.821Z,96513.53
2018-02-23T17:27:20.276Z,96520.31
2018-02-23T17:29:47.807Z,96520.31
2018-02-23T17:32:15.281Z,96517.57
2018-02-23T17:34:42.872Z,96516.53
2018-02-23T17:37:10.434Z,96524.97
2018-02-23T17:39:38.073Z,96521.45
2018-02-23T17:42:05.526Z,96519.61
2018-02-23T17:44:33.044Z,96520.94
2018-02-23T17:47:00.505Z,96513.70
2018-02-23T17:49:28.130Z,96520.41
2018-02-23T17:51:56.146Z,96513.22
2018-02-23T17:54:23.593Z,96508.05
2018-02-23T17:56:51.879Z,96518.87
2018-02-23T17:59:19.376Z,96509.01
2018-02-23T18:01:46.932Z,96511.20
2018-02-23T18:04:14.364Z,96517.36
2018-02-23T18:06:41.820Z,96539.95
2018-02-23T18:09:09.344Z,96531.11
2018-02-23T18:11:36.817Z,96531.63
2018-02-23T18:14:05.054Z,96529.75
2018-02-23T18:16:32.506Z,96540.12
2018-02-23T18:19:00.012Z,96556.56
2018-02-23T18:21:27.454Z,96547.66
2018-02-23T18:23:55.271Z,96552.95
2018-02-23T18:26:22.688Z,96551.73
2018-02-23T18:28:50.107Z,96560.36
2018-02-23T18:31:17.570Z,96581.17
2018-02-23T18:33:44.980Z,96579.46
2018-02-23T18:36:12.375Z,96586.34
2018-02-23T18:38:39.785Z,96574.47
2018-02-23T18:41:07.379Z,96584.84
2018-02-23T18:43:34.841Z,96592.28
2018-02-23T18:46:02.590Z,96585.42
2018-02-23T18:48:30.063Z,96582.84
2018-02-23T18:50:57.911Z,96588.38
2018-02-23T18:53:26.020Z,96588.17
2018-02-23T18:55:54.317Z,96588.77
2018-02-23T18:58:22.008Z,96584.48
2018-02-23T19:00:49.486Z,96591.77
2018-02-23T19:03:16.912Z,96583.68
2018-02-23T19:05:44.425Z,96589.05
2018-02-23T19:08:11.894Z,96581.80
2018-02-23T19:10:39.399Z,96587.72
2018-02-23T19:13:06.846Z,96590.76
2018-02-23T19:15:34.258Z,96596.14
2018-02-23T19:18:02.102Z,96596.76
2018-02-23T19:20:29.573Z,96595.67
2018-02-23T19:22:57.461Z,96599.53
2018-02-23T19:25:24.946Z,96605.88
2018-02-23T19:27:52.545Z,96607.09
2018-02-23T19:30:20.023Z,96608.38
2018-02-23T19:32:47.573Z,96611.50
2018-02-23T19:35:15.142Z,96620.73
2018-02-23T19:37:42.630Z,96614.02
2018-02-23T19:40:10.116Z,96622.14
2018-02-23T19:42:37.589Z,96623.05
2018-02-23T19:45:05.040Z,96613.48
2018-02-23T19:47:32.571Z,96617.61
2018-02-23T19:50:00.057Z,96625.63
2018-02-23T19:52:27.715Z,96612.69
2018-02-23T19:54:55.285Z,96616.77
2018-02-23T19:57:22.766Z,96621.48
2018-02-23T19:59:50.204Z,96621.34
2018-02-23T20:02:17.651Z,96618.34
2018-02-23T20:04:45.193Z,96620.50
2018-02-23T20:07:12.674Z,96622.30
2018-02-23T20:09:40.164Z,96622.77
2018-02-23T20:12:08.016Z,96612.48
2018-02-23T20:14:35.508Z,96621.00
2018-02-23T20:17:02.930Z,96628.59
2018-02-23T20:19:30.431Z,96630.02
2018-02-23T20:21:57.909Z,96629.94
2018-02-23T20:24:25.539Z,96629.53
2018-02-23T20:26:53.049Z,96626.11
2018-02-23T20:29:20.717Z,96620.23
2018-02-23T20:31:48.488Z,96624.64
2018-02-23T20:34:15.982Z,96629.77
2018-02-23T20:36:43.429Z,96630.86
2018-02-23T20:39:10.949Z,96625.85
2018-02-23T20:41:38.790Z,96625.44
2018-02-23T20:44:06.297Z,96624.27
2018-02-23T20:46:33.948Z,96622.52
2018-02-23T20:49:01.448Z,96617.39
2018-02-23T20:51:28.931Z,96607.80
2018-02-23T20:53:56.411Z,96620.78
2018-02-23T20:56:23.980Z,96618.00
2018-02-23T20:58:52.467Z,96618.77
2018-02-23T21:01:19.914Z,96621.02
2018-02-23T21:03:47.404Z,96630.66
2018-02-23T21:06:14.842Z,96635.70
2018-02-23T21:08:42.399Z,96621.84
2018-02-23T21:11:09.896Z,96633.28
2018-02-23T21:13:37.624Z,96630.14
2018-02-23T21:16:05.062Z,96629.88
2018-02-23T21:18:33.237Z,96633.94
2018-02-23T21:21:00.686Z,96628.27
2018-02-23T21:23:28.125Z,96630.40
2018-02-23T21:25:55.776Z,96624.41
2018-02-23T21:28:23.187Z,96624.64
2018-02-23T21:30:50.721Z,96625.86
2018-02-23T21:33:18.217Z,96634.28
2018-02-23T21:35:45.712Z,96631.62
2018-02-23T21:38:13.111Z,96626.53
2018-02-23T21:40:40.651Z,96627.90
2018-02-23T21:43:08.138Z,96629.91
2018-02-23T21:45:35.707Z,96615.56
2018-02-23T21:48:03.147Z,96619.14
2018-02-23T21:50:30.606Z,96615.05
2018-02-23T21:52:58.070Z,96619.09
2018-02-23T21:55:25.829Z,96623.13
2018-02-23T21:57:53.268Z,96615.63
2018-02-23T22:00:20.705Z,96608.75
2018-02-23T22:02:48.100Z,96609.20
2018-02-23T22:05:15.588Z,96607.54
2018-02-23T22:07:43.003Z,96612.59
2018-02-23T22:10:10.427Z,96608.72
2018-02-23T22:12:37.955Z,96603.30
2018-02-23T22:15:05.403Z,96598.12
2018-02-23T22:17:32.861Z,96600.59
2018-02-23T22:20:00.297Z,96600.14
2018-02-23T22:22:27.724Z,96595.69
2018-02-23T22:24:55.151Z,96589.31
2018-02-23T22:27:22.624Z,96601.38
2018-02-23T22:29:50.565Z,96604.23
2018-02-23T22:32:17.999Z,96604.11
2018-02-23T22:34:45.429Z,96596.41
2018-02-23T22:37:12.865Z,96592.16
2018-02-23T22:39:40.330Z,96598.41
2018-02-23T22:42:08.058Z,96604.19
2018-02-23T22:44:35.589Z,96590.73
2018-02-23T22:47:03.035Z,96586.41
2018-02-23T22:49:30.429Z,96599.59
2018-02-23T22:51:58.130Z,96594.10
2018-02-23T22:54:25.595Z,96592.98
2018-02-23T22:56:53.526Z,96599.44
2018-02-23T22:59:20.980Z,96600.17
2018-02-23T23:01:48.390Z,96602.34
2018-02-23T23:04:15.824Z,96600.89
2018-02-23T23:06:43.260Z,96610.69
2018-02-23T23:09:10.680Z,96608.40
2018-02-23T23:11:38.089Z,96607.91
2018-02-23T23:14:05.533Z,96603.91
2018-02-23T23:16:32.965Z,96608.61
2018-02-23T23:19:00.370Z,96611.99
2018-02-23T23:21:27.786Z,96614.58
2018-02-23T23:23:55.270Z,96617.83
2018-02-23T23:26:22.727Z,96619.45
2018-02-23T23:28:50.284Z,96615.03
2018-02-23T23:31:17.733Z,96618.11
2018-02-23T23:33:45.180Z,96612.48
2018-02-23T23:36:12.588Z,96615.94
2018-02-23T23:38:40.025Z,96615.36
2018-02-23T23:41:07.463Z,96613.20
2018-02-23T23:43:34.894Z,96614.23
2018-02-23T23:46:02.346Z,96607.82
2018-02-23T23:48:29.793Z,96608.44
2018-02-23T23:50:57.211Z,96604.20
2018-02-23T23:53:24.647Z,96605.79
2018-02-23T23:55:52.075Z,96597.22
2018-02-23T23:58:19.510Z,96606.33
